Overseas Mindoro — V7RE6 — position and weather

sailwx.info

Track history (hours):
 
Tides and Currents Weather Stations Pressure Air Temp Water Temp Dewpoint Dewpoint Depression Visibility Wind Speed Wind Dir Waves Ship Positions

Overseas Mindoro

Last reported at 2014-Sep-02 21:21 UTC. Time now 2014-Sep-02 23:55 UTC.
Position N 29°42' W 117°41'.

Length 238 m; draft 8.2 m.

Type: Tanker. MMSI: 538003473.

Date/timePositionNaut miles runAvg speedWind from/ knotsBaromVisibWave heightAir tempDewpointWater temp
2014-Sep-02 21:21N 29°42' W 117°41'911.0
2014-Sep-02 20:30N 29°51' W 117°45'1310.9
2014-Sep-02 19:16N 30°03' W 117°51'1110.8
2014-Sep-02 18:15N 30°13' W 117°56'710.7
2014-Sep-02 17:33N 30°20' W 117°60'1310.8
2014-Sep-02 16:23N 30°32' W 118°05'910.8
2014-Sep-02 15:32N 30°40' W 118°09'1210.5
2014-Sep-02 14:25N 30°52' W 118°14'1410.6
2014-Sep-02 13:06N 31°05' W 118°19'5 9.9
2014-Sep-02 12:33N 31°10' W 118°21'2 1.6
2014-Sep-02 11:33N 31°11' W 118°22'1 1.4
2014-Sep-02 10:33N 31°11' W 118°24'2 2.5
2014-Sep-02 09:33N 31°13' W 118°27'3 2.8
2014-Sep-02 08:33N 31°14' W 118°30'3 2.6
2014-Sep-02 07:33N 31°15' W 118°32'3 2.6
2014-Sep-02 06:33N 31°16' W 118°35'2 2.2
2014-Sep-02 05:33N 31°17' W 118°37'3 2.6
2014-Sep-02 04:33N 31°19' W 118°40'2 2.4
2014-Sep-02 03:33N 31°20' W 118°42'3 2.5
2014-Sep-02 02:33N 31°21' W 118°45'3 2.8
2014-Sep-02 01:33N 31°23' W 118°47'2 2.4
2014-Sep-02 00:33N 31°24' W 118°50'3 2.6
2014-Sep-01 23:33N 31°26' W 118°52'2 2.4
2014-Sep-01 22:33N 31°27' W 118°54'3 2.6
2014-Sep-01 21:33N 31°29' W 118°56'2 2.2
2014-Sep-01 20:33N 31°30' W 118°58'2 2.1
2014-Sep-01 19:33N 31°32' W 119°00'2 1.7
2014-Sep-01 18:33N 31°33' W 119°01'2 2.3
2014-Sep-01 17:33N 31°35' W 119°03'5 5.1
2014-Sep-01 16:33N 31°39' W 119°07'5 4.9
2014-Sep-01 15:34N 31°42' W 119°11'3 2.9
2014-Sep-01 14:31N 31°44' W 119°13'4 4.1
2014-Sep-01 13:33N 31°47' W 119°10'9 9.4
2014-Sep-01 12:33N 31°51' W 118°60'1110.9
2014-Sep-01 11:33N 31°54' W 118°47'3 2.9
2014-Sep-01 10:33N 31°54' W 118°44'1 0.9
2014-Sep-01 09:33N 31°53' W 118°45'1 0.8
2014-Sep-01 08:33N 31°53' W 118°46'1 0.7
2014-Sep-01 07:33N 31°53' W 118°46'1 0.9
2014-Sep-01 06:33N 31°52' W 118°47'1 1.0
2014-Sep-01 05:33N 31°52' W 118°48'1 1.0
2014-Sep-01 04:33N 31°52' W 118°50'1 1.0
2014-Sep-01 03:33N 31°52' W 118°51'1 1.0
2014-Sep-01 02:33N 31°52' W 118°52'1 1.1
2014-Sep-01 01:33N 31°51' W 118°53'1 1.1
2014-Sep-01 00:33N 31°51' W 118°55'1 1.1
2014-Aug-31 23:33N 31°51' W 118°56'1 1.1
2014-Aug-31 22:33N 31°51' W 118°57'1 1.0
2014-Aug-31 21:33N 31°51' W 118°58'1 0.7
2014-Aug-31 20:33N 31°51' W 118°59'1 0.7
2014-Aug-31 19:34N 31°51' W 118°60'1 0.8
2014-Aug-31 18:33N 31°51' W 119°01'1 1.0
2014-Aug-31 17:33N 31°51' W 119°02'1 0.9
2014-Aug-31 16:33N 31°51' W 119°03'1 0.9
2014-Aug-31 15:33N 31°51' W 119°04'1 1.1
2014-Aug-31 14:33N 31°51' W 119°05'1 1.0
2014-Aug-31 13:33N 31°51' W 119°07'1 1.2
2014-Aug-31 12:33N 31°51' W 119°08'1 1.2
2014-Aug-31 11:33N 31°51' W 119°09'1 1.2
2014-Aug-31 10:33N 31°52' W 119°11'1 1.1
2014-Aug-31 09:33N 31°52' W 119°12'1 0.8
2014-Aug-31 08:33N 31°52' W 119°13'1 0.8
2014-Aug-31 07:33N 31°52' W 119°14'1 0.7
2014-Aug-31 06:33N 31°52' W 119°15'1 0.7
2014-Aug-31 05:33N 31°52' W 119°15'1 0.6
2014-Aug-31 04:33N 31°52' W 119°16'1 0.6
2014-Aug-31 03:33N 31°53' W 119°17'1 0.8
2014-Aug-31 02:33N 31°53' W 119°18'1 1.1
2014-Aug-31 01:33N 31°53' W 119°19'1 1.0
2014-Aug-31 00:33N 31°54' W 119°20'1 1.0
2014-Aug-30 23:33N 31°54' W 119°21'1 1.0
2014-Aug-30 22:33N 31°55' W 119°22'1 1.1
2014-Aug-30 21:33N 31°55' W 119°23'1 1.1
2014-Aug-30 20:33N 31°56' W 119°24'1 1.1
2014-Aug-30 19:34N 31°56' W 119°25'1 1.4
2014-Aug-30 18:33N 31°57' W 119°27'1 1.3
2014-Aug-30 17:33N 31°57' W 119°28'1 1.2
2014-Aug-30 16:33N 31°57' W 119°30'1 1.2
2014-Aug-30 15:33N 31°57' W 119°31'1 1.1
2014-Aug-30 14:33N 31°57' W 119°32'1 1.0
2014-Aug-30 13:33N 31°57' W 119°33'1 1.0
2014-Aug-30 12:30N 31°58' W 119°35'1 0.8
2014-Aug-30 11:33N 31°58' W 119°36'1 0.9
2014-Aug-30 10:33N 31°58' W 119°37'1 0.8
2014-Aug-30 09:33N 31°57' W 119°38'1 0.8
2014-Aug-30 08:33N 31°57' W 119°38'1 0.9
2014-Aug-30 07:33N 31°57' W 119°39'1 0.9
2014-Aug-30 06:33N 31°58' W 119°40'1 1.0
2014-Aug-30 05:33N 31°58' W 119°42'1 1.3
2014-Aug-30 04:33N 31°58' W 119°43'1 1.4
2014-Aug-30 03:33N 31°58' W 119°45'1 1.4
2014-Aug-30 02:33N 31°59' W 119°46'1 1.4
2014-Aug-30 01:33N 31°59' W 119°48'2 1.5
2014-Aug-30 00:33N 31°59' W 119°50'1 1.5
2014-Aug-29 23:33N 31°59' W 119°52'2 2.3
2014-Aug-29 22:33N 31°59' W 119°54'1010.0
2014-Aug-29 21:33N 31°49' W 119°52'1010.1
2014-Aug-29 20:33N 31°39' W 119°49'1010.2
2014-Aug-29 19:33N 31°29' W 119°46'1010.4
2014-Aug-29 18:33N 31°19' W 119°43'1010.2
2014-Aug-29 17:33N 31°09' W 119°41'1 0.9
2014-Aug-29 16:33N 31°08' W 119°41'1 1.1
2014-Aug-29 15:33N 31°09' W 119°41'1 0.9
2014-Aug-29 14:33N 31°10' W 119°42'1 0.8
2014-Aug-29 13:33N 31°10' W 119°43'1 0.8
2014-Aug-29 12:33N 31°11' W 119°43'1 0.8
2014-Aug-29 11:33N 31°12' W 119°43'1 0.8
2014-Aug-29 10:33N 31°13' W 119°44'1 0.9
2014-Aug-29 09:33N 31°13' W 119°44'1 0.8
2014-Aug-29 08:33N 31°14' W 119°44'1 0.8
2014-Aug-29 07:33N 31°15' W 119°45'1 0.8
2014-Aug-29 06:33N 31°16' W 119°45'1 0.9
2014-Aug-29 05:32N 31°17' W 119°45'1 0.9
2014-Aug-29 04:33N 31°18' W 119°45'1 1.0
2014-Aug-29 03:33N 31°19' W 119°45'1 1.1
2014-Aug-29 02:33N 31°20' W 119°46'1 1.0
2014-Aug-29 01:33N 31°20' W 119°46'1 0.8
2014-Aug-29 00:33N 31°21' W 119°47'1 0.8
2014-Aug-28 23:33N 31°22' W 119°47'1 0.7
2014-Aug-28 22:33N 31°23' W 119°47'1 0.6
2014-Aug-28 21:33N 31°23' W 119°48'1 0.6
2014-Aug-28 20:33N 31°23' W 119°48'1 0.6
2014-Aug-28 19:33N 31°23' W 119°49'0 0.5
2014-Aug-28 18:33N 31°23' W 119°50'0 0.3
2014-Aug-28 17:34N 31°23' W 119°50'0 0.1
2014-Aug-28 16:33N 31°23' W 119°50'0 0.1
2014-Aug-28 15:33N 31°23' W 119°50'0 0.3
2014-Aug-28 14:33N 31°23' W 119°50'1 0.5
2014-Aug-28 13:29N 31°23' W 119°49'1 0.6
2014-Aug-28 12:20N 31°23' W 119°48'1 0.7
2014-Aug-28 11:33N 31°24' W 119°48'1 0.6
2014-Aug-28 10:33N 31°24' W 119°47'1 0.5
2014-Aug-28 09:33N 31°25' W 119°47'0 0.4
2014-Aug-28 08:33N 31°25' W 119°46'0 0.4
2014-Aug-28 07:33N 31°25' W 119°46'1 0.6
2014-Aug-28 06:33N 31°26' W 119°46'1 0.5
2014-Aug-28 05:33N 31°26' W 119°45'1 0.6
2014-Aug-28 04:32N 31°27' W 119°45'2 0.8
2014-Aug-28 02:29N 31°28' W 119°44'2 0.6
2014-Aug-27 23:27N 31°30' W 119°43'0 0.4
2014-Aug-27 22:33N 31°30' W 119°43'0 0.3
2014-Aug-27 21:33N 31°31' W 119°43'0 0.4
2014-Aug-27 20:33N 31°31' W 119°43'0 0.3
2014-Aug-27 19:34N 31°31' W 119°42'0 0.5
2014-Aug-27 18:33N 31°31' W 119°42'0 0.4
2014-Aug-27 17:33N 31°31' W 119°42'0 0.4
2014-Aug-27 16:33N 31°31' W 119°41'1 0.6
2014-Aug-27 15:33N 31°32' W 119°40'1 0.5
2014-Aug-27 14:27N 31°32' W 119°40'1 0.7
2014-Aug-27 13:11N 31°32' W 119°39'1 1.1
2014-Aug-27 12:33N 31°32' W 119°38'1 1.2
2014-Aug-27 11:33N 31°33' W 119°37'3 1.3
2014-Aug-27 09:30N 31°34' W 119°34'1 1.0
2014-Aug-27 08:33N 31°34' W 119°33'1 1.0
2014-Aug-27 07:33N 31°35' W 119°32'1 1.0
2014-Aug-27 06:33N 31°36' W 119°31'1 0.9
2014-Aug-27 05:33N 31°36' W 119°30'1 0.9
2014-Aug-27 04:33N 31°37' W 119°30'1 0.9
2014-Aug-27 03:33N 31°37' W 119°29'1 0.9
2014-Aug-27 02:28N 31°38' W 119°28'1 0.7
2014-Aug-27 01:33N 31°39' W 119°28'1 0.7
2014-Aug-26 23:33N 31°40' W 119°27'1 0.6
2014-Aug-26 22:30N 31°41' W 119°27'3 2.7
2014-Aug-26 21:31N 31°43' W 119°26'1010.3
2014-Aug-26 20:33N 31°53' W 119°27'10 9.5
2014-Aug-26 19:33N 32°02' W 119°22'1412.8
2014-Aug-26 18:27N 32°08' W 119°07'1112.6
2014-Aug-26 17:33N 32°12' W 118°55'1111.5
2014-Aug-26 16:34N 32°16' W 118°42'1310.9
2014-Aug-26 15:20N 32°21' W 118°28'1012.7
2014-Aug-26 14:33N 32°27' W 118°18'1412.8
2014-Aug-26 13:29N 32°36' W 118°06'1011.3
2014-Aug-26 12:33N 32°46' W 118°02'1312.9
2014-Aug-26 11:33N 32°59' W 118°04'1313.2
2014-Aug-26 10:33N 33°12' W 118°05'1212.4
2014-Aug-26 09:33N 33°24' W 118°08'1212.0
2014-Aug-26 08:33N 33°35' W 118°13'9 8.7
2014-Aug-26 07:30N 33°45' W 118°12'1 0.2
2014-Aug-26 04:33N 33°45' W 118°13'0 0.0
2014-Aug-26 03:33N 33°45' W 118°13'0 0.0
2014-Aug-26 02:33N 33°45' W 118°13'0 0.0
2014-Aug-25 21:24N 33°45' W 118°13'0 0.0
2014-Aug-25 04:09N 33°45' W 118°13'0 0.0
2014-Aug-25 03:27N 33°45' W 118°13'0 0.0
2014-Aug-25 02:33N 33°45' W 118°13'1 1.4
2014-Aug-25 01:31N 33°44' W 118°13'0 0.0
2014-Aug-25 00:31N 33°44' W 118°13'0 0.0
2014-Aug-24 23:28N 33°44' W 118°13'0 0.0
2014-Aug-24 22:31N 33°44' W 118°13'0 0.0
2014-Aug-24 21:31N 33°44' W 118°13'0 0.0
2014-Aug-24 20:31N 33°44' W 118°13'0 0.0
2014-Aug-24 18:31N 33°44' W 118°13'0 0.0
2014-Aug-24 16:31N 33°44' W 118°13'0 0.0
2014-Aug-24 15:19N 33°44' W 118°13'0 0.1
2014-Aug-24 14:28N 33°44' W 118°13'0 0.0
2014-Aug-24 13:25N 33°44' W 118°13'0 0.0
2014-Aug-24 12:31N 33°44' W 118°13'0 0.0
2014-Aug-24 11:25N 33°44' W 118°13'0 0.1
2014-Aug-24 10:16N 33°44' W 118°13'0 0.0
2014-Aug-24 09:31N 33°44' W 118°13'0 0.0
2014-Aug-24 08:31N 33°44' W 118°13'0 0.0
2014-Aug-24 07:31N 33°44' W 118°13'0 0.0
2014-Aug-24 06:31N 33°44' W 118°13'0 0.0
2014-Aug-24 05:31N 33°44' W 118°13'0 0.0
2014-Aug-24 04:31N 33°44' W 118°13'0 0.0
2014-Aug-24 03:31N 33°44' W 118°13'0 0.0
2014-Aug-24 02:31N 33°44' W 118°13'0 0.0
2014-Aug-24 01:31N 33°44' W 118°13'0 0.0
2014-Aug-24 00:31N 33°44' W 118°13'0 0.0
2014-Aug-23 23:31N 33°44' W 118°13'0 0.3
2014-Aug-23 22:34N 33°43' W 118°13'3 3.1
2014-Aug-23 21:33N 33°45' W 118°16'  
Track history (hours):
 
Tides and Currents Weather Stations Pressure Air Temp Water Temp Dewpoint Dewpoint Depression Visibility Wind Speed Wind Dir Waves Ship Positions

Overseas Mindoro

Last reported at 2014-Sep-02 21:21 UTC. Time now 2014-Sep-02 23:55 UTC.
Position N 29°42' W 117°41'.

Length 238 m; draft 8.2 m.

Type: Tanker. MMSI: 538003473.

Date/timePositionNaut miles runAvg speedWind from/ knotsBaromVisibWave heightAir tempDewpointWater temp
2014-Sep-02 21:21N 29°42' W 117°41'911.0
2014-Sep-02 20:30N 29°51' W 117°45'1310.9
2014-Sep-02 19:16N 30°03' W 117°51'1110.8
2014-Sep-02 18:15N 30°13' W 117°56'710.7
2014-Sep-02 17:33N 30°20' W 117°60'1310.8
2014-Sep-02 16:23N 30°32' W 118°05'910.8
2014-Sep-02 15:32N 30°40' W 118°09'1210.5
2014-Sep-02 14:25N 30°52' W 118°14'1410.6
2014-Sep-02 13:06N 31°05' W 118°19'5 9.9
2014-Sep-02 12:33N 31°10' W 118°21'2 1.6
2014-Sep-02 11:33N 31°11' W 118°22'1 1.4
2014-Sep-02 10:33N 31°11' W 118°24'2 2.5
2014-Sep-02 09:33N 31°13' W 118°27'3 2.8
2014-Sep-02 08:33N 31°14' W 118°30'3 2.6
2014-Sep-02 07:33N 31°15' W 118°32'3 2.6
2014-Sep-02 06:33N 31°16' W 118°35'2 2.2
2014-Sep-02 05:33N 31°17' W 118°37'3 2.6
2014-Sep-02 04:33N 31°19' W 118°40'2 2.4
2014-Sep-02 03:33N 31°20' W 118°42'3 2.5
2014-Sep-02 02:33N 31°21' W 118°45'3 2.8
2014-Sep-02 01:33N 31°23' W 118°47'2 2.4
2014-Sep-02 00:33N 31°24' W 118°50'3 2.6
2014-Sep-01 23:33N 31°26' W 118°52'2 2.4
2014-Sep-01 22:33N 31°27' W 118°54'3 2.6
2014-Sep-01 21:33N 31°29' W 118°56'2 2.2
2014-Sep-01 20:33N 31°30' W 118°58'2 2.1
2014-Sep-01 19:33N 31°32' W 119°00'2 1.7
2014-Sep-01 18:33N 31°33' W 119°01'2 2.3
2014-Sep-01 17:33N 31°35' W 119°03'5 5.1
2014-Sep-01 16:33N 31°39' W 119°07'5 4.9
2014-Sep-01 15:34N 31°42' W 119°11'3 2.9
2014-Sep-01 14:31N 31°44' W 119°13'4 4.1
2014-Sep-01 13:33N 31°47' W 119°10'9 9.4
2014-Sep-01 12:33N 31°51' W 118°60'1110.9
2014-Sep-01 11:33N 31°54' W 118°47'3 2.9
2014-Sep-01 10:33N 31°54' W 118°44'1 0.9
2014-Sep-01 09:33N 31°53' W 118°45'1 0.8
2014-Sep-01 08:33N 31°53' W 118°46'1 0.7
2014-Sep-01 07:33N 31°53' W 118°46'1 0.9
2014-Sep-01 06:33N 31°52' W 118°47'1 1.0
2014-Sep-01 05:33N 31°52' W 118°48'1 1.0
2014-Sep-01 04:33N 31°52' W 118°50'1 1.0
2014-Sep-01 03:33N 31°52' W 118°51'1 1.0
2014-Sep-01 02:33N 31°52' W 118°52'1 1.1
2014-Sep-01 01:33N 31°51' W 118°53'1 1.1
2014-Sep-01 00:33N 31°51' W 118°55'1 1.1
2014-Aug-31 23:33N 31°51' W 118°56'1 1.1
2014-Aug-31 22:33N 31°51' W 118°57'1 1.0
2014-Aug-31 21:33N 31°51' W 118°58'1 0.7
2014-Aug-31 20:33N 31°51' W 118°59'1 0.7
2014-Aug-31 19:34N 31°51' W 118°60'1 0.8
2014-Aug-31 18:33N 31°51' W 119°01'1 1.0
2014-Aug-31 17:33N 31°51' W 119°02'1 0.9
2014-Aug-31 16:33N 31°51' W 119°03'1 0.9
2014-Aug-31 15:33N 31°51' W 119°04'1 1.1
2014-Aug-31 14:33N 31°51' W 119°05'1 1.0
2014-Aug-31 13:33N 31°51' W 119°07'1 1.2
2014-Aug-31 12:33N 31°51' W 119°08'1 1.2
2014-Aug-31 11:33N 31°51' W 119°09'1 1.2
2014-Aug-31 10:33N 31°52' W 119°11'1 1.1
2014-Aug-31 09:33N 31°52' W 119°12'1 0.8
2014-Aug-31 08:33N 31°52' W 119°13'1 0.8
2014-Aug-31 07:33N 31°52' W 119°14'1 0.7
2014-Aug-31 06:33N 31°52' W 119°15'1 0.7
2014-Aug-31 05:33N 31°52' W 119°15'1 0.6
2014-Aug-31 04:33N 31°52' W 119°16'1 0.6
2014-Aug-31 03:33N 31°53' W 119°17'1 0.8
2014-Aug-31 02:33N 31°53' W 119°18'1 1.1
2014-Aug-31 01:33N 31°53' W 119°19'1 1.0
2014-Aug-31 00:33N 31°54' W 119°20'1 1.0
2014-Aug-30 23:33N 31°54' W 119°21'1 1.0
2014-Aug-30 22:33N 31°55' W 119°22'1 1.1
2014-Aug-30 21:33N 31°55' W 119°23'1 1.1
2014-Aug-30 20:33N 31°56' W 119°24'1 1.1
2014-Aug-30 19:34N 31°56' W 119°25'1 1.4
2014-Aug-30 18:33N 31°57' W 119°27'1 1.3
2014-Aug-30 17:33N 31°57' W 119°28'1 1.2
2014-Aug-30 16:33N 31°57' W 119°30'1 1.2
2014-Aug-30 15:33N 31°57' W 119°31'1 1.1
2014-Aug-30 14:33N 31°57' W 119°32'1 1.0
2014-Aug-30 13:33N 31°57' W 119°33'1 1.0
2014-Aug-30 12:30N 31°58' W 119°35'1 0.8
2014-Aug-30 11:33N 31°58' W 119°36'1 0.9
2014-Aug-30 10:33N 31°58' W 119°37'1 0.8
2014-Aug-30 09:33N 31°57' W 119°38'1 0.8
2014-Aug-30 08:33N 31°57' W 119°38'1 0.9
2014-Aug-30 07:33N 31°57' W 119°39'1 0.9
2014-Aug-30 06:33N 31°58' W 119°40'1 1.0
2014-Aug-30 05:33N 31°58' W 119°42'1 1.3
2014-Aug-30 04:33N 31°58' W 119°43'1 1.4
2014-Aug-30 03:33N 31°58' W 119°45'1 1.4
2014-Aug-30 02:33N 31°59' W 119°46'1 1.4
2014-Aug-30 01:33N 31°59' W 119°48'2 1.5
2014-Aug-30 00:33N 31°59' W 119°50'1 1.5
2014-Aug-29 23:33N 31°59' W 119°52'2 2.3
2014-Aug-29 22:33N 31°59' W 119°54'1010.0
2014-Aug-29 21:33N 31°49' W 119°52'1010.1
2014-Aug-29 20:33N 31°39' W 119°49'1010.2
2014-Aug-29 19:33N 31°29' W 119°46'1010.4
2014-Aug-29 18:33N 31°19' W 119°43'1010.2
2014-Aug-29 17:33N 31°09' W 119°41'1 0.9
2014-Aug-29 16:33N 31°08' W 119°41'1 1.1
2014-Aug-29 15:33N 31°09' W 119°41'1 0.9
2014-Aug-29 14:33N 31°10' W 119°42'1 0.8
2014-Aug-29 13:33N 31°10' W 119°43'1 0.8
2014-Aug-29 12:33N 31°11' W 119°43'1 0.8
2014-Aug-29 11:33N 31°12' W 119°43'1 0.8
2014-Aug-29 10:33N 31°13' W 119°44'1 0.9
2014-Aug-29 09:33N 31°13' W 119°44'1 0.8
2014-Aug-29 08:33N 31°14' W 119°44'1 0.8
2014-Aug-29 07:33N 31°15' W 119°45'1 0.8
2014-Aug-29 06:33N 31°16' W 119°45'1 0.9
2014-Aug-29 05:32N 31°17' W 119°45'1 0.9
2014-Aug-29 04:33N 31°18' W 119°45'1 1.0
2014-Aug-29 03:33N 31°19' W 119°45'1 1.1
2014-Aug-29 02:33N 31°20' W 119°46'1 1.0
2014-Aug-29 01:33N 31°20' W 119°46'1 0.8
2014-Aug-29 00:33N 31°21' W 119°47'1 0.8
2014-Aug-28 23:33N 31°22' W 119°47'1 0.7
2014-Aug-28 22:33N 31°23' W 119°47'1 0.6
2014-Aug-28 21:33N 31°23' W 119°48'1 0.6
2014-Aug-28 20:33N 31°23' W 119°48'1 0.6
2014-Aug-28 19:33N 31°23' W 119°49'0 0.5
2014-Aug-28 18:33N 31°23' W 119°50'0 0.3
2014-Aug-28 17:34N 31°23' W 119°50'0 0.1
2014-Aug-28 16:33N 31°23' W 119°50'0 0.1
2014-Aug-28 15:33N 31°23' W 119°50'0 0.3
2014-Aug-28 14:33N 31°23' W 119°50'1 0.5
2014-Aug-28 13:29N 31°23' W 119°49'1 0.6
2014-Aug-28 12:20N 31°23' W 119°48'1 0.7
2014-Aug-28 11:33N 31°24' W 119°48'1 0.6
2014-Aug-28 10:33N 31°24' W 119°47'1 0.5
2014-Aug-28 09:33N 31°25' W 119°47'0 0.4
2014-Aug-28 08:33N 31°25' W 119°46'0 0.4
2014-Aug-28 07:33N 31°25' W 119°46'1 0.6
2014-Aug-28 06:33N 31°26' W 119°46'1 0.5
2014-Aug-28 05:33N 31°26' W 119°45'1 0.6
2014-Aug-28 04:32N 31°27' W 119°45'2 0.8
2014-Aug-28 02:29N 31°28' W 119°44'2 0.6
2014-Aug-27 23:27N 31°30' W 119°43'0 0.4
2014-Aug-27 22:33N 31°30' W 119°43'0 0.3
2014-Aug-27 21:33N 31°31' W 119°43'0 0.4
2014-Aug-27 20:33N 31°31' W 119°43'0 0.3
2014-Aug-27 19:34N 31°31' W 119°42'0 0.5
2014-Aug-27 18:33N 31°31' W 119°42'0 0.4
2014-Aug-27 17:33N 31°31' W 119°42'0 0.4
2014-Aug-27 16:33N 31°31' W 119°41'1 0.6
2014-Aug-27 15:33N 31°32' W 119°40'1 0.5
2014-Aug-27 14:27N 31°32' W 119°40'1 0.7
2014-Aug-27 13:11N 31°32' W 119°39'1 1.1
2014-Aug-27 12:33N 31°32' W 119°38'1 1.2
2014-Aug-27 11:33N 31°33' W 119°37'3 1.3
2014-Aug-27 09:30N 31°34' W 119°34'1 1.0
2014-Aug-27 08:33N 31°34' W 119°33'1 1.0
2014-Aug-27 07:33N 31°35' W 119°32'1 1.0
2014-Aug-27 06:33N 31°36' W 119°31'1 0.9
2014-Aug-27 05:33N 31°36' W 119°30'1 0.9
2014-Aug-27 04:33N 31°37' W 119°30'1 0.9
2014-Aug-27 03:33N 31°37' W 119°29'1 0.9
2014-Aug-27 02:28N 31°38' W 119°28'1 0.7
2014-Aug-27 01:33N 31°39' W 119°28'1 0.7
2014-Aug-26 23:33N 31°40' W 119°27'1 0.6
2014-Aug-26 22:30N 31°41' W 119°27'3 2.7
2014-Aug-26 21:31N 31°43' W 119°26'1010.3
2014-Aug-26 20:33N 31°53' W 119°27'10 9.5
2014-Aug-26 19:33N 32°02' W 119°22'1412.8
2014-Aug-26 18:27N 32°08' W 119°07'1112.6
2014-Aug-26 17:33N 32°12' W 118°55'1111.5
2014-Aug-26 16:34N 32°16' W 118°42'1310.9
2014-Aug-26 15:20N 32°21' W 118°28'1012.7
2014-Aug-26 14:33N 32°27' W 118°18'1412.8
2014-Aug-26 13:29N 32°36' W 118°06'1011.3
2014-Aug-26 12:33N 32°46' W 118°02'1312.9
2014-Aug-26 11:33N 32°59' W 118°04'1313.2
2014-Aug-26 10:33N 33°12' W 118°05'1212.4
2014-Aug-26 09:33N 33°24' W 118°08'1212.0
2014-Aug-26 08:33N 33°35' W 118°13'9 8.7
2014-Aug-26 07:30N 33°45' W 118°12'1 0.2
2014-Aug-26 04:33N 33°45' W 118°13'0 0.0
2014-Aug-26 03:33N 33°45' W 118°13'0 0.0
2014-Aug-26 02:33N 33°45' W 118°13'0 0.0
2014-Aug-25 21:24N 33°45' W 118°13'0 0.0
2014-Aug-25 04:09N 33°45' W 118°13'0 0.0
2014-Aug-25 03:27N 33°45' W 118°13'0 0.0
2014-Aug-25 02:33N 33°45' W 118°13'1 1.4
2014-Aug-25 01:31N 33°44' W 118°13'0 0.0
2014-Aug-25 00:31N 33°44' W 118°13'0 0.0
2014-Aug-24 23:28N 33°44' W 118°13'0 0.0
2014-Aug-24 22:31N 33°44' W 118°13'0 0.0
2014-Aug-24 21:31N 33°44' W 118°13'0 0.0
2014-Aug-24 20:31N 33°44' W 118°13'0 0.0
2014-Aug-24 18:31N 33°44' W 118°13'0 0.0
2014-Aug-24 16:31N 33°44' W 118°13'0 0.0
2014-Aug-24 15:19N 33°44' W 118°13'0 0.1
2014-Aug-24 14:28N 33°44' W 118°13'0 0.0
2014-Aug-24 13:25N 33°44' W 118°13'0 0.0
2014-Aug-24 12:31N 33°44' W 118°13'0 0.0
2014-Aug-24 11:25N 33°44' W 118°13'0 0.1
2014-Aug-24 10:16N 33°44' W 118°13'0 0.0
2014-Aug-24 09:31N 33°44' W 118°13'0 0.0
2014-Aug-24 08:31N 33°44' W 118°13'0 0.0
2014-Aug-24 07:31N 33°44' W 118°13'0 0.0
2014-Aug-24 06:31N 33°44' W 118°13'0 0.0
2014-Aug-24 05:31N 33°44' W 118°13'0 0.0
2014-Aug-24 04:31N 33°44' W 118°13'0 0.0
2014-Aug-24 03:31N 33°44' W 118°13'0 0.0
2014-Aug-24 02:31N 33°44' W 118°13'0 0.0
2014-Aug-24 01:31N 33°44' W 118°13'0 0.0
2014-Aug-24 00:31N 33°44' W 118°13'0 0.0
2014-Aug-23 23:31N 33°44' W 118°13'0 0.3
2014-Aug-23 22:34N 33°43' W 118°13'3 3.1
2014-Aug-23 21:33N 33°45' W 118°16'  

Dump ship's entire track history